Time,TemperatureF,DewpointF,PressureIn,WindDirection,WindDirectionDegrees,WindSpeedMPH,WindSpeedGustMPH,Humidity,HourlyPrecipIn,Conditions,Clouds,dailyrainin,SoftwareType,DateUTC
2013-03-31 00:04:00,59.5,56.0,30.00,South,174,0.0,2.0,87,0.00,,,0.00,weatherlink.com 1.10,2013-03-31 05:04:00,
2013-03-31 00:19:00,59.2,55.0,30.00,South,181,0.0,2.0,87,0.00,,,0.00,weatherlink.com 1.10,2013-03-31 05:19:00,
2013-03-31 00:34:00,59.2,56.0,30.00,SSW,197,2.0,3.0,88,0.00,,,0.00,weatherlink.com 1.10,2013-03-31 05:34:00,
2013-03-31 00:49:00,59.4,56.0,30.00,SSW,212,1.0,3.0,88,0.00,,,0.00,weatherlink.com 1.10,2013-03-31 05:49:00,
2013-03-31 01:04:00,59.5,56.0,29.99,SW,221,2.0,3.0,89,0.00,,,0.00,weatherlink.com 1.10,2013-03-31 06:04:00,
2013-03-31 01:19:00,59.3,56.0,29.99,SSE,159,1.0,4.0,89,0.00,,,0.00,weatherlink.com 1.10,2013-03-31 06:19:00,
2013-03-31 01:34:00,59.0,56.0,29.99,SSW,210,0.0,2.0,90,0.00,,,0.00,weatherlink.com 1.10,2013-03-31 06:34:00,
2013-03-31 01:49:00,58.9,56.0,29.99,SW,229,1.0,2.0,90,0.00,,,0.00,weatherlink.com 1.10,2013-03-31 06:49:00,
2013-03-31 02:04:00,58.9,56.0,29.99,South,172,1.0,3.0,91,0.00,,,0.00,weatherlink.com 1.10,2013-03-31 07:04:00,
2013-03-31 02:19:00,58.7,56.0,29.99,SSW,203,1.0,3.0,91,0.00,,,0.00,weatherlink.com 1.10,2013-03-31 07:19:00,
2013-03-31 02:34:00,58.5,56.0,29.98,SSW,203,1.0,3.0,91,0.00,,,0.00,weatherlink.com 1.10,2013-03-31 07:34:00,
2013-03-31 02:50:00,58.2,56.0,29.99,South,170,0.0,2.0,92,0.00,,,0.00,weatherlink.com 1.10,2013-03-31 07:50:00,
2013-03-31 03:05:00,58.0,56.0,29.98,SSW,206,1.0,2.0,92,0.00,,,0.00,weatherlink.com 1.10,2013-03-31 08:05:00,
2013-03-31 03:20:00,57.7,56.0,29.98,SSW,196,0.0,2.0,93,0.00,,,0.00,weatherlink.com 1.10,2013-03-31 08:20:00,
2013-03-31 03:35:00,57.6,56.0,29.97,South,177,0.0,3.0,93,0.00,,,0.00,weatherlink.com 1.10,2013-03-31 08:35:00,
2013-03-31 03:50:00,57.7,56.0,29.96,SSW,212,0.0,4.0,94,0.00,,,0.00,weatherlink.com 1.10,2013-03-31 08:50:00,
2013-03-31 04:05:00,58.2,57.0,29.96,SSE,153,1.0,4.0,94,0.00,,,0.00,weatherlink.com 1.10,2013-03-31 09:05:00,
2013-03-31 04:20:00,58.6,57.0,29.96,WSW,239,2.0,5.0,95,0.00,,,0.00,weatherlink.com 1.10,2013-03-31 09:20:00,
2013-03-31 04:35:00,58.8,57.0,29.95,SW,228,0.0,4.0,95,0.00,,,0.00,weatherlink.com 1.10,2013-03-31 09:35:00,
2013-03-31 04:50:00,59.0,58.0,29.95,West,267,1.0,4.0,95,0.00,,,0.00,weatherlink.com 1.10,2013-03-31 09:50:00,
2013-03-31 05:05:00,59.1,58.0,29.95,SSW,204,4.0,6.0,96,0.00,,,0.00,weatherlink.com 1.10,2013-03-31 10:05:00,
2013-03-31 05:20:00,59.3,58.0,29.95,SSW,195,2.0,4.0,96,0.00,,,0.00,weatherlink.com 1.10,2013-03-31 10:20:00,
2013-03-31 05:35:00,59.5,58.0,29.95,SSW,197,2.0,4.0,96,0.00,,,0.00,weatherlink.com 1.10,2013-03-31 10:35:00,
2013-03-31 05:50:00,59.7,59.0,29.95,WSW,242,1.0,3.0,96,0.00,,,0.00,weatherlink.com 1.10,2013-03-31 10:50:00,
2013-03-31 06:05:00,59.8,59.0,29.95,South,187,0.0,4.0,96,0.00,,,0.00,weatherlink.com 1.10,2013-03-31 11:05:00,
2013-03-31 06:20:00,59.9,59.0,29.95,SSW,196,0.0,3.0,96,0.00,,,0.00,weatherlink.com 1.10,2013-03-31 11:20:00,
2013-03-31 06:35:00,60.1,59.0,29.95,South,186,0.0,4.0,96,0.00,,,0.00,weatherlink.com 1.10,2013-03-31 11:35:00,
2013-03-31 06:50:00,60.3,59.0,29.96,South,176,1.0,3.0,96,0.00,,,0.00,weatherlink.com 1.10,2013-03-31 11:50:00,
2013-03-31 07:05:00,60.4,59.0,29.96,SSW,204,1.0,3.0,96,0.00,,,0.00,weatherlink.com 1.10,2013-03-31 12:05:00,
2013-03-31 07:20:00,60.6,60.0,29.96,SSW,207,1.0,3.0,96,0.00,,,0.00,weatherlink.com 1.10,2013-03-31 12:20:00,
2013-03-31 07:35:00,60.7,60.0,29.96,South,170,1.0,4.0,97,0.00,,,0.00,weatherlink.com 1.10,2013-03-31 12:35:00,
2013-03-31 07:50:00,60.8,60.0,29.96,South,176,1.0,3.0,97,0.00,,,0.00,weatherlink.com 1.10,2013-03-31 12:50:00,
2013-03-31 08:05:00,61.0,60.0,29.96,WSW,256,1.0,4.0,97,0.00,,,0.00,weatherlink.com 1.10,2013-03-31 13:05:00,
2013-03-31 08:20:00,61.3,61.0,29.96,WNW,283,1.0,3.0,97,0.00,,,0.00,weatherlink.com 1.10,2013-03-31 13:20:00,
2013-03-31 08:35:00,61.5,61.0,29.95,SW,218,1.0,7.0,97,0.00,,,0.00,weatherlink.com 1.10,2013-03-31 13:35:00,
2013-03-31 08:50:00,61.7,61.0,29.95,SSW,195,3.0,9.0,97,0.00,,,0.00,weatherlink.com 1.10,2013-03-31 13:50:00,
2013-03-31 09:05:00,62.0,61.0,29.95,SW,218,2.0,5.0,97,0.00,,,0.00,weatherlink.com 1.10,2013-03-31 14:05:00,
2013-03-31 09:20:00,62.5,61.0,29.95,South,186,3.0,5.0,96,0.00,,,0.00,weatherlink.com 1.10,2013-03-31 14:20:00,
2013-03-31 09:35:00,62.9,62.0,29.96,West,263,1.0,5.0,95,0.00,,,0.00,weatherlink.com 1.10,2013-03-31 14:35:00,
2013-03-31 09:50:00,63.5,62.0,29.96,SSW,195,2.0,4.0,94,0.00,,,0.00,weatherlink.com 1.10,2013-03-31 14:50:00,
2013-03-31 10:05:00,64.5,62.0,29.96,WNW,298,2.0,7.0,91,0.00,,,0.00,weatherlink.com 1.10,2013-03-31 15:05:00,
2013-03-31 10:20:00,65.4,62.0,29.96,West,262,1.0,6.0,88,0.00,,,0.00,weatherlink.com 1.10,2013-03-31 15:20:00,
2013-03-31 10:35:00,65.5,62.0,29.97,SSW,197,2.0,7.0,88,0.00,,,0.00,weatherlink.com 1.10,2013-03-31 15:35:00,
2013-03-31 10:50:00,66.0,62.0,29.97,WNW,284,1.0,5.0,87,0.00,,,0.00,weatherlink.com 1.10,2013-03-31 15:50:00,
2013-03-31 11:05:00,66.0,62.0,29.96,SSW,203,0.0,5.0,88,0.00,,,0.00,weatherlink.com 1.10,2013-03-31 16:05:00,
2013-03-31 11:20:00,66.6,62.0,29.95,WSW,245,3.0,8.0,86,0.00,,,0.00,weatherlink.com 1.10,2013-03-31 16:20:00,
2013-03-31 11:35:00,67.5,63.0,29.95,SSW,200,4.0,8.0,84,0.00,,,0.00,weatherlink.com 1.10,2013-03-31 16:35:00,
2013-03-31 11:50:00,67.5,62.0,29.95,West,278,2.0,9.0,83,0.00,,,0.00,weatherlink.com 1.10,2013-03-31 16:50:00,
2013-03-31 12:05:00,67.5,62.0,29.95,SSW,211,0.0,7.0,83,0.00,,,0.00,weatherlink.com 1.10,2013-03-31 17:05:00,
2013-03-31 12:21:00,68.4,62.0,29.94,WNW,283,0.0,7.0,81,0.00,,,0.00,weatherlink.com 1.10,2013-03-31 17:21:00,
2013-03-31 12:36:00,68.2,62.0,29.94,SSE,152,1.0,6.0,81,0.00,,,0.00,weatherlink.com 1.10,2013-03-31 17:36:00,
2013-03-31 12:51:00,67.9,63.0,29.93,SSE,162,2.0,7.0,83,0.00,,,0.00,weatherlink.com 1.10,2013-03-31 17:51:00,
2013-03-31 13:06:00,68.5,63.0,29.94,SE,133,1.0,6.0,82,0.00,,,0.00,weatherlink.com 1.10,2013-03-31 18:06:00,
2013-03-31 13:21:00,68.9,63.0,29.93,SE,139,0.0,4.0,81,0.00,,,0.00,weatherlink.com 1.10,2013-03-31 18:21:00,
2013-03-31 13:36:00,68.8,63.0,29.93,SE,141,1.0,3.0,81,0.00,,,0.00,weatherlink.com 1.10,2013-03-31 18:36:00,
2013-03-31 13:51:00,68.7,63.0,29.92,West,259,1.0,3.0,82,0.00,,,0.00,weatherlink.com 1.10,2013-03-31 18:51:00,
2013-03-31 14:06:00,69.0,63.0,29.92,West,276,0.0,2.0,82,0.00,,,0.00,weatherlink.com 1.10,2013-03-31 19:06:00,
2013-03-31 14:36:00,69.4,63.0,29.92,SSW,205,0.0,1.0,81,0.00,,,0.00,weatherlink.com 1.10,2013-03-31 19:36:00,
2013-03-31 14:51:00,69.2,64.0,29.92,West,267,0.0,1.0,83,0.00,,,0.00,weatherlink.com 1.10,2013-03-31 19:51:00,
2013-03-31 15:06:00,69.2,64.0,29.91,SW,215,0.0,1.0,82,0.00,,,0.00,weatherlink.com 1.10,2013-03-31 20:06:00,
2013-03-31 15:36:00,61.7,57.0,29.94,West,276,5.0,18.0,85,0.03,,,0.03,weatherlink.com 1.10,2013-03-31 20:36:00,
2013-03-31 15:51:00,58.5,56.0,29.96,WNW,296,3.0,14.0,91,0.10,,,0.10,weatherlink.com 1.10,2013-03-31 20:51:00,
2013-03-31 16:06:00,57.8,56.0,29.96,WNW,295,1.0,8.0,92,0.16,,,0.16,weatherlink.com 1.10,2013-03-31 21:06:00,
2013-03-31 16:21:00,57.4,55.0,29.94,NE,42,3.0,10.0,93,0.21,,,0.21,weatherlink.com 1.10,2013-03-31 21:21:00,
2013-03-31 16:36:00,57.4,55.0,29.93,NNE,26,1.0,3.0,93,0.21,,,0.24,weatherlink.com 1.10,2013-03-31 21:36:00,
2013-03-31 16:51:00,57.3,56.0,29.93,NE,40,0.0,2.0,94,0.15,,,0.25,weatherlink.com 1.10,2013-03-31 21:51:00,
2013-03-31 17:06:00,57.6,56.0,29.91,West,271,0.0,1.0,94,0.10,,,0.26,weatherlink.com 1.10,2013-03-31 22:06:00,
2013-03-31 17:36:00,57.5,56.0,29.81,SSE,159,5.0,8.0,95,0.02,,,0.26,weatherlink.com 1.10,2013-03-31 22:36:00,
2013-03-31 17:51:00,57.6,56.0,29.81,South,184,3.0,8.0,95,0.01,,,0.26,weatherlink.com 1.10,2013-03-31 22:51:00,
2013-03-31 18:06:00,57.9,57.0,29.82,South,172,0.0,2.0,95,0.00,,,0.26,weatherlink.com 1.10,2013-03-31 23:06:00,
2013-03-31 18:21:00,58.9,58.0,29.83,South,172,0.0,0.0,95,0.00,,,0.26,weatherlink.com 1.10,2013-03-31 23:21:00,
2013-03-31 18:36:00,59.9,58.0,29.85,NNW,342,2.0,8.0,93,0.00,,,0.26,weatherlink.com 1.10,2013-03-31 23:36:00,
2013-03-31 18:51:00,59.4,57.0,29.85,SSE,162,0.0,2.0,93,0.00,,,0.26,weatherlink.com 1.10,2013-03-31 23:51:00,
2013-03-31 19:06:00,58.8,57.0,29.85,South,170,1.0,1.0,93,0.00,,,0.26,weatherlink.com 1.10,2013-04-01 00:06:00,
2013-03-31 19:21:00,58.2,57.0,29.86,SSE,167,0.0,1.0,94,0.00,,,0.26,weatherlink.com 1.10,2013-04-01 00:21:00,
2013-03-31 19:36:00,57.9,57.0,29.86,South,169,0.0,1.0,95,0.00,,,0.26,weatherlink.com 1.10,2013-04-01 00:36:00,
2013-03-31 19:51:00,57.4,56.0,29.87,South,169,0.0,0.0,95,0.00,,,0.26,weatherlink.com 1.10,2013-04-01 00:51:00,
2013-03-31 20:06:00,57.1,56.0,29.87,South,170,0.0,1.0,95,0.00,,,0.26,weatherlink.com 1.10,2013-04-01 01:06:00,
2013-03-31 20:21:00,56.9,56.0,29.88,South,169,0.0,1.0,96,0.00,,,0.26,weatherlink.com 1.10,2013-04-01 01:21:00,
2013-03-31 20:36:00,56.8,56.0,29.89,South,170,0.0,0.0,96,0.00,,,0.26,weatherlink.com 1.10,2013-04-01 01:36:00,
2013-03-31 21:06:00,56.9,56.0,29.91,South,170,0.0,0.0,96,0.00,,,0.26,weatherlink.com 1.10,2013-04-01 02:06:00,
2013-03-31 21:21:00,57.1,56.0,29.92,South,169,0.0,0.0,96,0.00,,,0.26,weatherlink.com 1.10,2013-04-01 02:21:00,
2013-03-31 21:36:00,57.2,56.0,29.92,South,169,0.0,0.0,96,0.00,,,0.26,weatherlink.com 1.10,2013-04-01 02:36:00,
2013-03-31 21:51:00,57.3,56.0,29.92,South,169,0.0,1.0,96,0.00,,,0.26,weatherlink.com 1.10,2013-04-01 02:51:00,
2013-03-31 22:21:00,56.9,56.0,29.93,West,267,0.0,1.0,96,0.00,,,0.26,weatherlink.com 1.10,2013-04-01 03:21:00,
2013-03-31 22:36:00,56.7,56.0,29.93,WSW,239,0.0,0.0,96,0.00,,,0.26,weatherlink.com 1.10,2013-04-01 03:36:00,
2013-03-31 22:51:00,56.8,56.0,29.94,WSW,239,0.0,0.0,96,0.00,,,0.26,weatherlink.com 1.10,2013-04-01 03:51:00,
2013-03-31 23:06:00,57.0,56.0,29.94,WSW,239,0.0,0.0,96,0.00,,,0.26,weatherlink.com 1.10,2013-04-01 04:06:00,
2013-03-31 23:21:00,57.2,56.0,29.94,WSW,239,0.0,0.0,97,0.00,,,0.26,weatherlink.com 1.10,2013-04-01 04:21:00,
2013-03-31 23:36:00,57.3,56.0,29.93,West,259,0.0,1.0,96,0.00,,,0.26,weatherlink.com 1.10,2013-04-01 04:36:00,
2013-03-31 23:51:00,57.4,56.0,29.93,SW,235,0.0,1.0,96,0.00,,,0.26,weatherlink.com 1.10,2013-04-01 04:51:00,